createdAt,value
2022-12-05T00:00:36.126Z,41.07
2022-12-05T00:03:06.201Z,42.90
2022-12-05T00:05:32.733Z,40.57
2022-12-05T00:07:59.270Z,40.70
2022-12-05T00:10:25.808Z,44.00
2022-12-05T00:12:52.261Z,39.73
2022-12-05T00:15:18.724Z,42.13
2022-12-05T00:17:45.206Z,42.63
2022-12-05T00:20:11.791Z,40.77
2022-12-05T00:22:38.545Z,44.47
2022-12-05T00:25:08.615Z,38.30
2022-12-05T00:27:35.191Z,40.10
2022-12-05T00:30:02.021Z,39.00
2022-12-05T00:32:29.998Z,39.63
2022-12-05T00:34:56.739Z,38.73
2022-12-05T00:37:23.948Z,41.13
2022-12-05T00:39:50.497Z,42.07
2022-12-05T00:42:17.128Z,44.90
2022-12-05T00:44:43.590Z,40.17
2022-12-05T00:47:10.058Z,46.17
2022-12-05T00:49:36.715Z,47.23
2022-12-05T00:52:03.246Z,41.40
2022-12-05T00:54:29.677Z,43.70
2022-12-05T00:56:58.958Z,42.83
2022-12-05T00:59:25.419Z,44.07
2022-12-05T01:01:52.344Z,42.47
2022-12-05T01:04:20.257Z,40.97
2022-12-05T01:06:47.072Z,42.30
2022-12-05T01:09:16.207Z,40.50
2022-12-05T01:11:43.605Z,43.10
2022-12-05T01:14:11.641Z,47.77
2022-12-05T01:16:40.306Z,42.63
2022-12-05T01:19:11.804Z,38.93
2022-12-05T01:21:38.314Z,40.43
2022-12-05T01:24:05.108Z,42.20
2022-12-05T01:26:31.570Z,42.43
2022-12-05T01:28:58.070Z,41.33
2022-12-05T01:31:27.675Z,45.47
2022-12-05T01:33:55.816Z,47.03
2022-12-05T01:36:23.476Z,41.63
2022-12-05T01:38:50.699Z,42.67
2022-12-05T01:41:23.449Z,41.97
2022-12-05T01:44:03.518Z,44.57
2022-12-05T01:46:38.730Z,40.63
2022-12-05T01:49:15.501Z,41.43
2022-12-05T01:51:46.205Z,44.03
2022-12-05T01:54:15.071Z,41.33
2022-12-05T01:56:44.415Z,40.63
2022-12-05T01:59:11.804Z,41.03
2022-12-05T02:01:38.978Z,39.67
2022-12-05T02:04:06.247Z,45.67
2022-12-05T02:06:33.431Z,40.67
2022-12-05T02:08:59.948Z,39.90
2022-12-05T02:11:30.081Z,43.03
2022-12-05T02:14:28.684Z,39.23
2022-12-05T02:17:15.031Z,41.40
2022-12-05T02:20:12.529Z,43.27
2022-12-05T02:22:54.112Z,42.70
2022-12-05T02:25:45.419Z,41.33
2022-12-05T02:28:36.158Z,43.17
2022-12-05T02:31:21.682Z,41.37
2022-12-05T02:33:59.752Z,43.33
2022-12-05T02:36:42.749Z,40.37
2022-12-05T02:39:12.197Z,39.33
2022-12-05T02:41:50.803Z,40.90
2022-12-05T02:44:42.723Z,44.00
2022-12-05T02:47:12.855Z,43.17
2022-12-05T02:49:42.365Z,45.77
2022-12-05T02:52:14.285Z,37.60
2022-12-05T02:54:44.774Z,39.33
2022-12-05T02:57:13.334Z,40.23
2022-12-05T02:59:39.900Z,39.63
2022-12-05T03:02:09.157Z,44.87
2022-12-05T03:04:36.285Z,41.50
2022-12-05T03:07:08.701Z,38.07
2022-12-05T03:09:40.858Z,44.00
2022-12-05T03:12:17.492Z,39.30
2022-12-05T03:15:03.943Z,50.80
2022-12-05T03:17:35.753Z,41.97
2022-12-05T03:20:14.159Z,48.17
2022-12-05T03:22:54.006Z,38.40
2022-12-05T03:25:25.388Z,43.73
2022-12-05T03:28:10.014Z,46.10
2022-12-05T03:30:39.476Z,46.20
2022-12-05T03:33:14.494Z,39.97
2022-12-05T03:35:50.803Z,42.93
2022-12-05T03:38:24.122Z,43.37
2022-12-05T03:41:13.600Z,40.37
2022-12-05T03:44:01.181Z,40.27
2022-12-05T03:46:32.603Z,39.43
2022-12-05T03:49:07.359Z,41.10
2022-12-05T03:52:15.751Z,39.03
2022-12-05T03:55:00.184Z,40.30
2022-12-05T03:57:51.993Z,40.23
2022-12-05T04:00:21.254Z,41.00
2022-12-05T04:02:50.414Z,38.20
2022-12-05T04:05:32.341Z,42.00
2022-12-05T04:08:04.671Z,38.70
2022-12-05T04:10:48.437Z,38.43
2022-12-05T04:13:41.132Z,42.10
2022-12-05T04:16:31.201Z,40.57
2022-12-05T04:19:06.704Z,37.97
2022-12-05T04:21:45.378Z,36.37
2022-12-05T04:24:47.598Z,42.87
2022-12-05T04:27:30.104Z,37.87
2022-12-05T04:30:05.254Z,35.50
2022-12-05T04:32:51.893Z,35.50
2022-12-05T04:35:53.815Z,37.13
2022-12-05T04:38:30.077Z,38.23
2022-12-05T04:41:04.752Z,37.47
2022-12-05T04:43:35.225Z,38.20
2022-12-05T04:46:06.408Z,42.10
2022-12-05T04:48:37.349Z,37.70
2022-12-05T04:51:07.928Z,35.37
2022-12-05T04:53:35.780Z,44.50
2022-12-05T04:56:04.905Z,41.80
2022-12-05T04:58:32.254Z,39.27
2022-12-05T05:01:08.026Z,35.80
2022-12-05T05:03:38.287Z,38.07
2022-12-05T05:06:05.202Z,42.17
2022-12-05T05:08:31.663Z,39.57
2022-12-05T05:11:06.662Z,39.87
2022-12-05T05:13:33.074Z,35.87
2022-12-05T05:15:59.566Z,39.80
2022-12-05T05:18:26.070Z,39.50
2022-12-05T05:20:52.692Z,34.90
2022-12-05T05:23:19.101Z,36.17
2022-12-05T05:25:45.589Z,35.30
2022-12-05T05:28:12.142Z,36.03
2022-12-05T05:30:38.529Z,40.57
2022-12-05T05:33:04.994Z,38.83
2022-12-05T05:35:31.429Z,31.47
2022-12-05T05:37:57.870Z,41.83
2022-12-05T05:40:24.327Z,43.33
2022-12-05T05:42:51.088Z,36.10
2022-12-05T05:45:17.737Z,41.43
2022-12-05T05:47:44.840Z,40.63
2022-12-05T05:50:16.295Z,41.33
2022-12-05T05:52:46.205Z,44.97
2022-12-05T05:55:12.664Z,44.70
2022-12-05T05:57:39.100Z,34.13
2022-12-05T06:00:08.475Z,37.83
2022-12-05T06:02:35.743Z,36.40
2022-12-05T06:05:02.378Z,39.47
2022-12-05T06:07:29.410Z,37.67
2022-12-05T06:09:56.259Z,43.73
2022-12-05T06:12:23.343Z,42.33
2022-12-05T06:14:50.410Z,35.70
2022-12-05T06:17:16.829Z,38.90
2022-12-05T06:19:43.281Z,40.40
2022-12-05T06:22:09.762Z,29.90
2022-12-05T06:24:36.282Z,36.70
2022-12-05T06:27:02.659Z,35.50
2022-12-05T06:29:33.657Z,35.70
2022-12-05T06:32:00.950Z,35.53
2022-12-05T06:34:27.442Z,39.80
2022-12-05T06:36:53.915Z,34.73
2022-12-05T06:39:20.393Z,34.90
2022-12-05T06:41:46.821Z,34.50
2022-12-05T06:44:13.240Z,33.67
2022-12-05T06:46:39.652Z,34.40
2022-12-05T06:49:06.108Z,38.17
2022-12-05T06:51:32.617Z,35.53
2022-12-05T06:53:59.060Z,33.23
2022-12-05T06:56:25.584Z,39.70
2022-12-05T06:58:54.001Z,31.10
2022-12-05T07:01:41.083Z,37.60
2022-12-05T07:04:10.840Z,33.97
2022-12-05T07:06:38.145Z,34.63
2022-12-05T07:09:05.988Z,31.93
2022-12-05T07:11:33.356Z,34.70
2022-12-05T07:13:59.965Z,34.53
2022-12-05T07:16:26.487Z,30.87
2022-12-05T07:18:52.978Z,32.50
2022-12-05T07:21:21.611Z,33.43
2022-12-05T07:23:50.116Z,40.67
2022-12-05T07:26:20.702Z,34.13
2022-12-05T07:28:47.929Z,36.20
2022-12-05T07:31:17.708Z,36.43
2022-12-05T07:33:45.083Z,34.73
2022-12-05T07:36:14.919Z,36.30
2022-12-05T07:38:42.109Z,34.27
2022-12-05T07:41:21.588Z,33.73
2022-12-05T07:43:48.133Z,38.87
2022-12-05T07:46:14.677Z,36.20
2022-12-05T07:48:41.304Z,34.33
2022-12-05T07:51:09.468Z,38.17
2022-12-05T07:53:36.528Z,35.10
2022-12-05T07:56:05.455Z,33.60
2022-12-05T07:58:34.167Z,41.47
2022-12-05T08:01:16.168Z,35.70
2022-12-05T08:03:43.283Z,30.33
2022-12-05T08:06:13.454Z,30.37
2022-12-05T08:08:40.132Z,38.97
2022-12-05T08:11:21.816Z,31.33
2022-12-05T08:13:49.449Z,35.93
2022-12-05T08:16:19.197Z,28.03
2022-12-05T08:18:46.835Z,30.50
2022-12-05T08:21:16.141Z,31.87
2022-12-05T08:23:43.294Z,28.20
2022-12-05T08:26:12.756Z,27.97
2022-12-05T08:28:40.112Z,27.07
2022-12-05T08:31:13.130Z,28.17
2022-12-05T08:33:40.287Z,28.97
2022-12-05T08:36:09.333Z,29.17
2022-12-05T08:38:36.430Z,33.50
2022-12-05T08:41:09.876Z,32.87
2022-12-05T08:43:37.082Z,30.73
2022-12-05T08:46:04.336Z,31.97
2022-12-05T08:48:32.733Z,29.57
2022-12-05T08:50:59.876Z,29.00
2022-12-05T08:53:26.653Z,35.90
2022-12-05T08:55:53.070Z,29.87
2022-12-05T08:58:19.509Z,26.67
2022-12-05T09:00:45.988Z,30.80
2022-12-05T09:03:12.829Z,32.27
2022-12-05T09:05:39.510Z,31.33
2022-12-05T09:08:06.206Z,28.23
2022-12-05T09:10:32.763Z,36.07
2022-12-05T09:12:59.409Z,27.93
2022-12-05T09:15:26.126Z,32.00
2022-12-05T09:17:52.622Z,31.60
2022-12-05T09:20:19.141Z,30.17
2022-12-05T09:22:45.623Z,33.27
2022-12-05T09:25:12.206Z,27.53
2022-12-05T09:27:38.739Z,31.40
2022-12-05T09:30:06.213Z,29.03
2022-12-05T09:32:32.713Z,28.10
2022-12-05T09:34:59.542Z,29.47
2022-12-05T09:37:41.145Z,32.63
2022-12-05T09:40:15.328Z,31.80
2022-12-05T09:43:07.110Z,31.97
2022-12-05T09:45:39.768Z,27.80
2022-12-05T09:48:24.572Z,28.10
2022-12-05T09:51:00.121Z,34.87
2022-12-05T09:53:34.609Z,30.03
2022-12-05T09:56:05.928Z,32.30
2022-12-05T09:59:20.402Z,27.10
2022-12-05T10:02:11.603Z,28.60
2022-12-05T10:05:00.981Z,28.87
2022-12-05T10:07:46.540Z,27.53
2022-12-05T10:10:39.113Z,33.23
2022-12-05T10:13:21.667Z,38.80
2022-12-05T10:15:57.534Z,39.63
2022-12-05T10:18:51.356Z,39.07
2022-12-05T10:21:23.297Z,39.23
2022-12-05T10:24:14.293Z,40.47
2022-12-05T10:26:48.612Z,37.90
2022-12-05T10:29:17.626Z,32.83
2022-12-05T10:31:45.739Z,35.93
2022-12-05T10:34:18.571Z,43.70
2022-12-05T10:36:56.557Z,34.60
2022-12-05T10:39:23.336Z,28.80
2022-12-05T10:41:50.333Z,29.87
2022-12-05T10:44:16.864Z,24.87
2022-12-05T10:46:43.581Z,24.77
2022-12-05T10:49:12.051Z,29.80
2022-12-05T10:51:39.614Z,30.30
2022-12-05T10:54:17.301Z,27.37
2022-12-05T10:56:49.452Z,29.43
2022-12-05T10:59:21.342Z,29.23
2022-12-05T11:01:53.003Z,40.60
2022-12-05T11:04:30.733Z,44.43
2022-12-05T11:07:05.616Z,40.10
2022-12-05T11:09:47.352Z,24.53
2022-12-05T11:12:18.306Z,24.37
2022-12-05T11:14:58.311Z,19.77
2022-12-05T11:17:37.787Z,22.10
2022-12-05T11:20:24.210Z,21.43
2022-12-05T11:22:53.750Z,20.00
2022-12-05T11:25:26.514Z,17.87
2022-12-05T11:27:55.941Z,17.47
2022-12-05T11:30:29.155Z,18.17
2022-12-05T11:33:18.407Z,18.30
2022-12-05T11:35:46.664Z,20.23
2022-12-05T11:38:15.713Z,18.87
2022-12-05T11:41:04.126Z,16.63
2022-12-05T11:43:38.906Z,16.80
2022-12-05T11:46:35.957Z,17.60
2022-12-05T11:49:21.350Z,18.90
2022-12-05T11:51:53.748Z,18.77
2022-12-05T11:55:03.335Z,17.33
2022-12-05T11:57:52.912Z,17.40
2022-12-05T12:00:23.143Z,16.90
2022-12-05T12:03:18.323Z,20.57
2022-12-05T12:05:47.463Z,21.30
2022-12-05T12:08:24.572Z,16.87
2022-12-05T12:11:03.288Z,16.40
2022-12-05T12:13:55.215Z,18.10
2022-12-05T12:16:53.512Z,19.67
2022-12-05T12:19:50.525Z,17.70
2022-12-05T12:22:48.299Z,17.60
2022-12-05T12:25:35.893Z,17.20
2022-12-05T12:28:14.631Z,15.83
2022-12-05T12:31:19.751Z,15.67
2022-12-05T12:33:55.669Z,15.13
2022-12-05T12:36:28.579Z,15.87
2022-12-05T12:39:16.324Z,15.63
2022-12-05T12:41:53.114Z,14.37
2022-12-05T12:44:53.892Z,14.23
2022-12-05T12:47:23.277Z,13.87
2022-12-05T12:49:56.385Z,13.90
2022-12-05T12:52:28.037Z,15.30
2022-12-05T12:55:24.812Z,13.63
2022-12-05T12:57:51.195Z,13.97
2022-12-05T13:00:23.667Z,15.37
2022-12-05T13:03:22.607Z,13.50
2022-12-05T13:05:54.191Z,15.10
2022-12-05T13:08:29.905Z,15.03
2022-12-05T13:10:59.606Z,13.50
2022-12-05T13:13:33.910Z,15.53
2022-12-05T13:16:02.740Z,15.07
2022-12-05T13:18:29.216Z,17.10
2022-12-05T13:20:59.968Z,16.00
2022-12-05T13:23:32.455Z,14.73
2022-12-05T13:26:00.303Z,16.13
2022-12-05T13:28:28.795Z,16.80
2022-12-05T13:30:57.834Z,16.27
2022-12-05T13:33:42.090Z,14.60
2022-12-05T13:36:32.741Z,12.67
2022-12-05T13:39:20.617Z,15.20
2022-12-05T13:42:12.255Z,15.50
2022-12-05T13:44:41.016Z,15.53
2022-12-05T13:47:21.346Z,14.87
2022-12-05T13:49:54.212Z,14.30
2022-12-05T13:52:25.230Z,13.77
2022-12-05T13:55:03.975Z,14.63
2022-12-05T13:57:39.519Z,15.77
2022-12-05T14:00:09.133Z,17.33
2022-12-05T14:02:45.342Z,15.03
2022-12-05T14:05:21.178Z,19.37
2022-12-05T14:07:52.971Z,14.97
2022-12-05T14:10:39.946Z,14.27
2022-12-05T14:13:15.536Z,14.10
2022-12-05T14:15:45.952Z,18.47
2022-12-05T14:18:33.871Z,16.80
2022-12-05T14:21:03.206Z,17.00
2022-12-05T14:23:50.085Z,15.77
2022-12-05T14:27:14.074Z,16.83
2022-12-05T14:29:52.588Z,15.40
2022-12-05T14:32:38.675Z,14.60
2022-12-05T14:35:23.325Z,14.97
2022-12-05T14:38:03.149Z,15.03
2022-12-05T14:40:39.532Z,14.40
2022-12-05T14:43:31.889Z,14.13
2022-12-05T14:46:02.920Z,17.40
2022-12-05T14:48:36.374Z,14.03
2022-12-05T14:51:45.978Z,15.83
2022-12-05T14:54:17.652Z,14.23
2022-12-05T14:56:48.003Z,14.20
2022-12-05T14:59:27.243Z,17.20
2022-12-05T15:02:03.405Z,14.20
2022-12-05T15:04:35.874Z,15.90
2022-12-05T15:07:10.425Z,15.33
2022-12-05T15:09:59.462Z,17.87
2022-12-05T15:12:30.312Z,14.73
2022-12-05T15:15:19.918Z,16.77
2022-12-05T15:17:51.611Z,17.23
2022-12-05T15:20:29.676Z,18.07
2022-12-05T15:22:56.213Z,15.10
2022-12-05T15:25:28.481Z,16.87
2022-12-05T15:27:58.062Z,18.67
2022-12-05T15:30:24.924Z,16.60
2022-12-05T15:32:56.144Z,15.83
2022-12-05T15:35:28.811Z,17.90
2022-12-05T15:38:04.285Z,16.67
2022-12-05T15:40:38.902Z,15.93
2022-12-05T15:43:28.631Z,17.10
2022-12-05T15:46:24.644Z,18.70
2022-12-05T15:48:56.506Z,16.57
2022-12-05T15:51:37.489Z,16.30
2022-12-05T15:54:31.129Z,16.47
2022-12-05T15:57:08.982Z,17.77
2022-12-05T16:00:06.355Z,15.87
2022-12-05T16:03:02.549Z,15.13
2022-12-05T16:05:46.724Z,16.00
2022-12-05T16:08:13.402Z,16.30
2022-12-05T16:10:40.018Z,17.10
2022-12-05T16:13:12.179Z,19.70
2022-12-05T16:15:50.688Z,16.87
2022-12-05T16:18:28.634Z,18.13
2022-12-05T16:20:55.649Z,18.33
2022-12-05T16:23:26.808Z,20.30
2022-12-05T16:25:53.542Z,17.03
2022-12-05T16:28:22.254Z,18.27
2022-12-05T16:31:00.240Z,17.50
2022-12-05T16:33:28.304Z,20.43
2022-12-05T16:35:54.809Z,21.40
2022-12-05T16:38:29.717Z,21.90
2022-12-05T16:41:01.783Z,23.57
2022-12-05T16:43:42.260Z,19.00
2022-12-05T16:46:12.937Z,18.10
2022-12-05T16:48:41.672Z,20.03
2022-12-05T16:51:11.159Z,21.70
2022-12-05T16:53:39.289Z,20.83
2022-12-05T16:56:07.913Z,19.67
2022-12-05T16:58:35.625Z,20.37
2022-12-05T17:01:04.525Z,20.87
2022-12-05T17:03:35.483Z,29.90
2022-12-05T17:06:02.977Z,25.23
2022-12-05T17:08:29.467Z,23.83
2022-12-05T17:10:56.127Z,22.20
2022-12-05T17:13:22.882Z,28.93
2022-12-05T17:15:49.584Z,23.40
2022-12-05T17:18:20.262Z,24.60
2022-12-05T17:20:51.328Z,23.73
2022-12-05T17:23:18.325Z,21.43
2022-12-05T17:25:59.033Z,24.37
2022-12-05T17:28:25.935Z,23.17
2022-12-05T17:30:52.929Z,23.93
2022-12-05T17:33:20.399Z,23.00
2022-12-05T17:35:47.307Z,20.83
2022-12-05T17:38:15.197Z,21.70
2022-12-05T17:40:48.214Z,26.10
2022-12-05T17:43:19.893Z,25.00
2022-12-05T17:45:49.655Z,20.53
2022-12-05T17:48:16.481Z,25.27
2022-12-05T17:50:45.955Z,24.30
2022-12-05T17:53:14.006Z,20.73
2022-12-05T17:55:40.483Z,21.33
2022-12-05T17:58:06.899Z,20.57
2022-12-05T18:00:33.786Z,22.07
2022-12-05T18:03:00.523Z,21.63
2022-12-05T18:05:27.026Z,19.00
2022-12-05T18:07:53.545Z,20.93
2022-12-05T18:10:23.346Z,22.73
2022-12-05T18:12:50.595Z,21.00
2022-12-05T18:15:17.621Z,23.73
2022-12-05T18:17:44.306Z,21.87
2022-12-05T18:20:13.371Z,25.67
2022-12-05T18:22:39.913Z,26.17
2022-12-05T18:25:06.811Z,23.83
2022-12-05T18:27:34.834Z,24.50
2022-12-05T18:30:02.026Z,28.03
2022-12-05T18:32:28.465Z,26.50
2022-12-05T18:34:55.134Z,25.60
2022-12-05T18:37:22.271Z,27.30
2022-12-05T18:39:48.799Z,25.60
2022-12-05T18:42:15.669Z,27.27
2022-12-05T18:44:42.436Z,28.50
2022-12-05T18:47:09.117Z,25.03
2022-12-05T18:49:35.620Z,26.70
2022-12-05T18:52:02.122Z,28.40
2022-12-05T18:54:28.623Z,28.10
2022-12-05T18:56:55.067Z,26.50
2022-12-05T18:59:22.342Z,28.37
2022-12-05T19:01:50.141Z,23.10
2022-12-05T19:04:20.363Z,29.17
2022-12-05T19:06:52.946Z,24.17
2022-12-05T19:09:22.041Z,24.50
2022-12-05T19:11:51.049Z,26.07
2022-12-05T19:14:19.386Z,27.90
2022-12-05T19:16:51.696Z,27.73
2022-12-05T19:19:23.049Z,27.40
2022-12-05T19:21:49.550Z,26.73
2022-12-05T19:24:19.433Z,22.57
2022-12-05T19:26:47.924Z,25.00
2022-12-05T19:29:16.005Z,23.17
2022-12-05T19:31:44.160Z,25.67
2022-12-05T19:34:11.051Z,23.80
2022-12-05T19:36:43.588Z,22.23
2022-12-05T19:39:18.742Z,27.67
2022-12-05T19:41:46.045Z,21.73
2022-12-05T19:44:13.470Z,29.20
2022-12-05T19:46:41.007Z,24.80
2022-12-05T19:49:11.127Z,24.83
2022-12-05T19:51:38.298Z,27.47
2022-12-05T19:54:07.135Z,24.33
2022-12-05T19:56:35.492Z,23.30
2022-12-05T19:59:02.531Z,23.77
2022-12-05T20:01:30.587Z,23.20
2022-12-05T20:04:06.918Z,22.20
2022-12-05T20:06:38.265Z,23.10
2022-12-05T20:09:06.473Z,21.23
2022-12-05T20:11:33.004Z,21.47
2022-12-05T20:14:01.009Z,19.97
2022-12-05T20:16:29.412Z,21.00
2022-12-05T20:18:59.005Z,21.30
2022-12-05T20:21:28.251Z,20.20
2022-12-05T20:23:55.208Z,20.83
2022-12-05T20:26:24.745Z,20.50
2022-12-05T20:28:51.817Z,20.40
2022-12-05T20:31:24.132Z,24.53
2022-12-05T20:33:52.176Z,21.53
2022-12-05T20:36:21.004Z,21.57
2022-12-05T20:38:48.230Z,22.37
2022-12-05T20:41:17.501Z,22.27
2022-12-05T20:43:45.860Z,21.90
2022-12-05T20:46:15.923Z,19.73
2022-12-05T20:48:43.532Z,21.67
2022-12-05T20:51:18.849Z,23.10
2022-12-05T20:53:46.024Z,22.50
2022-12-05T20:56:15.999Z,20.47
2022-12-05T20:58:45.221Z,21.97
2022-12-05T21:01:13.162Z,22.20
2022-12-05T21:03:42.214Z,21.70
2022-12-05T21:06:11.653Z,22.37
2022-12-05T21:08:38.793Z,21.60
2022-12-05T21:11:06.374Z,23.43
2022-12-05T21:13:33.277Z,21.40
2022-12-05T21:16:12.070Z,20.23
2022-12-05T21:18:39.930Z,21.40
2022-12-05T21:21:17.212Z,21.67
2022-12-05T21:23:51.835Z,21.50
2022-12-05T21:26:19.084Z,21.93
2022-12-05T21:28:46.234Z,22.40
2022-12-05T21:31:15.735Z,23.37
2022-12-05T21:33:46.075Z,23.77
2022-12-05T21:36:12.679Z,25.07
2022-12-05T21:38:39.362Z,24.50
2022-12-05T21:41:06.388Z,26.07
2022-12-05T21:43:34.287Z,22.23
2022-12-05T21:46:01.141Z,24.20
2022-12-05T21:48:27.930Z,25.77
2022-12-05T21:50:54.908Z,20.90
2022-12-05T21:53:21.938Z,26.03
2022-12-05T21:55:49.194Z,30.90
2022-12-05T21:58:15.932Z,26.73
2022-12-05T22:00:43.491Z,25.37
2022-12-05T22:03:14.734Z,25.33
2022-12-05T22:05:42.097Z,24.97
2022-12-05T22:08:08.639Z,27.17
2022-12-05T22:10:35.325Z,28.03
2022-12-05T22:13:01.825Z,31.83
2022-12-05T22:15:28.284Z,26.83
2022-12-05T22:17:54.709Z,26.20
2022-12-05T22:20:21.475Z,27.60
2022-12-05T22:22:47.998Z,32.60
2022-12-05T22:25:15.016Z,29.17
2022-12-05T22:27:41.531Z,30.93
2022-12-05T22:30:08.568Z,30.97
2022-12-05T22:32:34.988Z,33.97
2022-12-05T22:35:04.035Z,33.90
2022-12-05T22:37:31.281Z,28.70
2022-12-05T22:39:58.230Z,32.20
2022-12-05T22:42:26.566Z,31.33
2022-12-05T22:44:53.014Z,37.10
2022-12-05T22:47:19.434Z,33.60
2022-12-05T22:49:45.867Z,29.30
2022-12-05T22:52:12.346Z,32.87
2022-12-05T22:54:39.170Z,31.87
2022-12-05T22:57:05.816Z,36.90
2022-12-05T22:59:32.495Z,31.63
2022-12-05T23:01:59.001Z,30.67
2022-12-05T23:04:25.527Z,31.40
2022-12-05T23:06:52.376Z,31.17
2022-12-05T23:09:18.869Z,31.67
2022-12-05T23:11:45.358Z,29.43
2022-12-05T23:14:11.860Z,28.63
2022-12-05T23:16:38.436Z,32.03
2022-12-05T23:19:06.078Z,31.03
2022-12-05T23:21:35.339Z,30.50
2022-12-05T23:24:05.248Z,29.83
2022-12-05T23:26:35.559Z,28.67
2022-12-05T23:29:02.273Z,27.37
2022-12-05T23:31:28.876Z,31.30
2022-12-05T23:34:01.335Z,28.10
2022-12-05T23:36:29.518Z,30.60
2022-12-05T23:38:55.962Z,27.73
2022-12-05T23:41:24.126Z,27.00
2022-12-05T23:43:51.899Z,27.33
2022-12-05T23:46:21.747Z,28.50
2022-12-05T23:48:49.678Z,27.47
2022-12-05T23:51:20.755Z,34.33
2022-12-05T23:53:51.113Z,33.13
2022-12-05T23:56:20.357Z,28.00
2022-12-05T23:58:47.111Z,25.37
